createdAt,value
2022-09-27T00:00:13.685Z,93750.72
2022-09-27T00:02:15.585Z,93750.38
2022-09-27T00:04:17.316Z,93748.81
2022-09-27T00:06:28.612Z,93741.38
2022-09-27T00:08:30.269Z,93718.50
2022-09-27T00:10:32.008Z,93742.69
2022-09-27T00:12:33.674Z,93732.91
2022-09-27T00:14:35.391Z,93753.47
2022-09-27T00:16:38.618Z,93754.16
2022-09-27T00:18:40.401Z,93755.50
2022-09-27T00:20:42.228Z,93768.13
2022-09-27T00:22:43.885Z,93777.63
2022-09-27T00:24:45.523Z,93773.91
2022-09-27T00:26:48.237Z,93767.19
2022-09-27T00:28:49.843Z,93770.00
2022-09-27T00:30:52.171Z,93764.31
2022-09-27T00:32:54.146Z,93752.84
2022-09-27T00:34:56.039Z,93745.44
2022-09-27T00:36:57.714Z,93742.44
2022-09-27T00:39:00.768Z,93731.47
2022-09-27T00:41:02.565Z,93735.88
2022-09-27T00:43:28.933Z,93742.50
2022-09-27T00:45:30.577Z,93724.19
2022-09-27T00:47:32.234Z,93737.72
2022-09-27T00:49:38.963Z,93725.69
2022-09-27T00:51:42.405Z,93716.06
2022-09-27T00:53:48.619Z,93719.22
2022-09-27T00:55:55.849Z,93725.81
2022-09-27T00:57:57.829Z,93719.66
2022-09-27T01:00:07.834Z,93713.09
2022-09-27T01:02:09.623Z,93710.59
2022-09-27T01:04:13.562Z,93732.50
2022-09-27T01:06:15.809Z,93738.53
2022-09-27T01:08:17.436Z,93722.47
2022-09-27T01:10:19.907Z,93736.22
2022-09-27T01:12:34.094Z,93732.81
2022-09-27T01:14:38.991Z,93727.09
2022-09-27T01:17:17.097Z,93698.50
2022-09-27T01:19:28.020Z,93706.47
2022-09-27T01:21:41.272Z,93697.09
2022-09-27T01:23:48.943Z,93707.06
2022-09-27T01:26:25.346Z,93703.19
2022-09-27T01:28:48.072Z,93710.47
2022-09-27T01:31:02.551Z,93721.63
2022-09-27T01:33:10.230Z,93717.75
2022-09-27T01:35:49.918Z,93717.63
2022-09-27T01:37:59.602Z,93716.19
2022-09-27T01:40:24.704Z,93704.81
2022-09-27T01:42:32.903Z,93719.53
2022-09-27T01:44:39.354Z,93732.28
2022-09-27T01:46:45.889Z,93718.41
2022-09-27T01:48:48.763Z,93727.28
2022-09-27T01:50:55.498Z,93721.19
2022-09-27T01:53:08.174Z,93728.72
2022-09-27T01:55:12.404Z,93705.16
2022-09-27T01:57:18.801Z,93707.22
2022-09-27T01:59:22.566Z,93710.19
2022-09-27T02:01:24.176Z,93706.47
2022-09-27T02:03:36.499Z,93695.88
2022-09-27T02:05:44.229Z,93698.34
2022-09-27T02:07:53.998Z,93690.84
2022-09-27T02:10:09.760Z,93693.84
2022-09-27T02:12:14.418Z,93679.22
2022-09-27T02:14:20.285Z,93664.16
2022-09-27T02:16:43.670Z,93666.00
2022-09-27T02:18:57.307Z,93678.31
2022-09-27T02:21:01.134Z,93685.78
2022-09-27T02:23:15.521Z,93654.06
2022-09-27T02:25:23.279Z,93636.13
2022-09-27T02:27:29.528Z,93636.94
2022-09-27T02:29:39.355Z,93630.63
2022-09-27T02:31:41.274Z,93626.44
2022-09-27T02:33:51.090Z,93625.19
2022-09-27T02:35:52.741Z,93623.41
2022-09-27T02:37:55.443Z,93627.75
2022-09-27T02:39:58.063Z,93608.69
2022-09-27T02:42:00.240Z,93618.38
2022-09-27T02:44:08.205Z,93635.75
2022-09-27T02:46:35.582Z,93631.03
2022-09-27T02:48:49.830Z,93656.13
2022-09-27T02:50:51.538Z,93633.28
2022-09-27T02:53:33.447Z,93641.84
2022-09-27T02:56:20.564Z,93658.25
2022-09-27T02:58:57.745Z,93657.34
2022-09-27T03:01:26.650Z,93648.84
2022-09-27T03:03:37.346Z,93623.09
2022-09-27T03:05:45.554Z,93613.75
2022-09-27T03:07:48.667Z,93612.47
2022-09-27T03:09:52.140Z,93600.41
2022-09-27T03:11:53.761Z,93595.81
2022-09-27T03:14:08.310Z,93596.75
2022-09-27T03:16:10.397Z,93590.63
2022-09-27T03:18:12.023Z,93574.81
2022-09-27T03:20:13.768Z,93574.41
2022-09-27T03:22:15.637Z,93575.72
2022-09-27T03:24:17.293Z,93569.47
2022-09-27T03:26:19.340Z,93578.16
2022-09-27T03:28:20.981Z,93586.19
2022-09-27T03:30:22.994Z,93569.91
2022-09-27T03:32:24.842Z,93579.81
2022-09-27T03:34:26.498Z,93585.28
2022-09-27T03:36:29.102Z,93583.03
2022-09-27T03:38:30.810Z,93577.19
2022-09-27T03:40:32.714Z,93572.50
2022-09-27T03:42:34.372Z,93577.31
2022-09-27T03:44:36.321Z,93566.47
2022-09-27T03:46:38.033Z,93580.25
2022-09-27T03:48:39.768Z,93569.69
2022-09-27T03:50:41.738Z,93563.81
2022-09-27T03:52:44.152Z,93580.16
2022-09-27T03:54:45.958Z,93587.69
2022-09-27T03:56:47.899Z,93584.19
2022-09-27T03:58:49.492Z,93579.25
2022-09-27T04:00:51.146Z,93573.75
2022-09-27T04:02:53.260Z,93577.72
2022-09-27T04:04:54.922Z,93578.56
2022-09-27T04:06:57.806Z,93572.16
2022-09-27T04:08:59.763Z,93576.13
2022-09-27T04:11:01.420Z,93584.56
2022-09-27T04:13:03.350Z,93568.69
2022-09-27T04:15:05.887Z,93563.88
2022-09-27T04:17:07.997Z,93571.38
2022-09-27T04:19:09.731Z,93572.94
2022-09-27T04:21:11.442Z,93563.75
2022-09-27T04:23:13.064Z,93562.44
2022-09-27T04:25:14.729Z,93567.44
2022-09-27T04:27:17.232Z,93568.19
2022-09-27T04:29:18.956Z,93566.31
2022-09-27T04:31:20.662Z,93562.19
2022-09-27T04:33:22.799Z,93563.38
2022-09-27T04:35:42.939Z,93568.25
2022-09-27T04:37:45.233Z,93570.88
2022-09-27T04:39:46.894Z,93574.31
2022-09-27T04:41:48.770Z,93566.81
2022-09-27T04:43:58.203Z,93562.75
2022-09-27T04:46:01.069Z,93572.50
2022-09-27T04:48:02.741Z,93584.47
2022-09-27T04:50:04.737Z,93581.25
2022-09-27T04:52:06.547Z,93583.72
2022-09-27T04:54:08.258Z,93577.56
2022-09-27T04:56:10.361Z,93580.31
2022-09-27T04:58:12.084Z,93582.09
2022-09-27T05:00:14.786Z,93576.00
2022-09-27T05:02:16.459Z,93575.78
2022-09-27T05:04:18.239Z,93568.63
2022-09-27T05:06:19.948Z,93567.31
2022-09-27T05:08:21.663Z,93564.38
2022-09-27T05:10:23.318Z,93551.50
2022-09-27T05:12:26.913Z,93557.06
2022-09-27T05:14:28.719Z,93550.66
2022-09-27T05:16:33.321Z,93545.50
2022-09-27T05:18:35.826Z,93542.44
2022-09-27T05:20:37.499Z,93544.53
2022-09-27T05:22:40.407Z,93536.88
2022-09-27T05:24:42.114Z,93549.06
2022-09-27T05:26:45.551Z,93546.19
2022-09-27T05:28:47.603Z,93535.31
2022-09-27T05:30:49.398Z,93531.56
2022-09-27T05:32:51.517Z,93530.41
2022-09-27T05:34:54.422Z,93544.78
2022-09-27T05:36:56.036Z,93549.75
2022-09-27T05:38:57.646Z,93534.31
2022-09-27T05:40:59.449Z,93556.22
2022-09-27T05:43:01.114Z,93554.53
2022-09-27T05:45:02.738Z,93557.88
2022-09-27T05:47:05.062Z,93549.44
2022-09-27T05:49:06.833Z,93546.31
2022-09-27T05:51:08.463Z,93548.66
2022-09-27T05:53:10.763Z,93545.78
2022-09-27T05:55:12.373Z,93543.72
2022-09-27T05:57:13.930Z,93565.50
2022-09-27T05:59:15.759Z,93556.56
2022-09-27T06:01:18.162Z,93548.78
2022-09-27T06:03:19.923Z,93558.47
2022-09-27T06:05:21.949Z,93560.44
2022-09-27T06:07:23.651Z,93559.53
2022-09-27T06:09:27.128Z,93557.69
2022-09-27T06:11:28.861Z,93559.84
2022-09-27T06:13:31.072Z,93535.03
2022-09-27T06:15:34.633Z,93558.94
2022-09-27T06:17:36.306Z,93564.69
2022-09-27T06:19:37.959Z,93548.13
2022-09-27T06:21:39.574Z,93559.91
2022-09-27T06:23:41.474Z,93552.81
2022-09-27T06:25:43.261Z,93551.16
2022-09-27T06:27:44.863Z,93551.88
2022-09-27T06:29:47.364Z,93547.66
2022-09-27T06:31:49.105Z,93550.97
2022-09-27T06:33:51.035Z,93547.53
2022-09-27T06:35:53.533Z,93562.13
2022-09-27T06:37:55.826Z,93564.69
2022-09-27T06:39:57.512Z,93553.13
2022-09-27T06:41:59.925Z,93536.06
2022-09-27T06:44:01.768Z,93552.69
2022-09-27T06:46:07.695Z,93556.44
2022-09-27T06:48:12.829Z,93556.34
2022-09-27T06:50:14.702Z,93559.81
2022-09-27T06:52:16.366Z,93556.91
2022-09-27T06:54:18.369Z,93551.50
2022-09-27T06:56:20.004Z,93543.88
2022-09-27T06:58:40.305Z,93550.47
2022-09-27T07:00:43.290Z,93542.63
2022-09-27T07:02:46.312Z,93558.84
2022-09-27T07:04:47.884Z,93557.59
2022-09-27T07:06:49.888Z,93568.09
2022-09-27T07:08:52.969Z,93567.19
2022-09-27T07:11:15.571Z,93557.34
2022-09-27T07:13:17.321Z,93555.66
2022-09-27T07:15:21.497Z,93564.97
2022-09-27T07:17:23.624Z,93559.41
2022-09-27T07:19:25.647Z,93557.81
2022-09-27T07:21:27.310Z,93547.63
2022-09-27T07:23:29.153Z,93559.88
2022-09-27T07:25:31.587Z,93568.19
2022-09-27T07:27:38.406Z,93572.94
2022-09-27T07:29:40.679Z,93568.25
2022-09-27T07:31:42.812Z,93575.63
2022-09-27T07:33:44.531Z,93563.81
2022-09-27T07:35:46.206Z,93559.25
2022-09-27T07:37:47.848Z,93578.66
2022-09-27T07:39:49.496Z,93574.16
2022-09-27T07:41:51.131Z,93576.88
2022-09-27T07:43:53.429Z,93571.91
2022-09-27T07:45:56.890Z,93580.00
2022-09-27T07:47:58.789Z,93590.06
2022-09-27T07:50:00.442Z,93585.75
2022-09-27T07:52:02.424Z,93573.59
2022-09-27T07:54:08.511Z,93582.97
2022-09-27T07:56:10.517Z,93587.25
2022-09-27T07:58:12.278Z,93580.25
2022-09-27T08:00:16.103Z,93575.25
2022-09-27T08:02:18.220Z,93582.91
2022-09-27T08:04:20.251Z,93569.41
2022-09-27T08:06:22.142Z,93559.88
2022-09-27T08:08:24.305Z,93558.25
2022-09-27T08:10:31.536Z,93553.63
2022-09-27T08:12:33.227Z,93538.88
2022-09-27T08:14:40.992Z,93539.75
2022-09-27T08:16:44.853Z,93550.53
2022-09-27T08:18:46.608Z,93552.16
2022-09-27T08:20:48.309Z,93552.00
2022-09-27T08:22:50.200Z,93563.16
2022-09-27T08:24:51.825Z,93564.22
2022-09-27T08:26:53.455Z,93561.09
2022-09-27T08:28:55.292Z,93549.69
2022-09-27T08:30:59.346Z,93556.78
2022-09-27T08:33:03.266Z,93550.47
2022-09-27T08:35:07.483Z,93545.19
2022-09-27T08:37:09.082Z,93524.81
2022-09-27T08:39:10.736Z,93516.66
2022-09-27T08:41:53.111Z,93540.56
2022-09-27T08:44:15.999Z,93531.50
2022-09-27T08:46:44.474Z,93536.47
2022-09-27T08:48:51.650Z,93528.97
2022-09-27T08:50:54.423Z,93530.00
2022-09-27T08:52:58.745Z,93527.34
2022-09-27T08:55:04.821Z,93532.91
2022-09-27T08:57:16.625Z,93533.00
2022-09-27T08:59:23.825Z,93537.00
2022-09-27T09:01:28.950Z,93510.94
2022-09-27T09:03:35.761Z,93517.09
2022-09-27T09:05:38.237Z,93524.16
2022-09-27T09:08:13.541Z,93521.94
2022-09-27T09:11:02.359Z,93510.88
2022-09-27T09:13:27.668Z,93510.22
2022-09-27T09:16:11.317Z,93512.50
2022-09-27T09:18:41.439Z,93518.59
2022-09-27T09:21:04.840Z,93514.00
2022-09-27T09:23:06.622Z,93509.16
2022-09-27T09:25:28.921Z,93509.84
2022-09-27T09:27:42.464Z,93512.84
2022-09-27T09:29:44.100Z,93498.69
2022-09-27T09:32:11.913Z,93490.53
2022-09-27T09:34:20.896Z,93501.47
2022-09-27T09:36:22.462Z,93490.38
2022-09-27T09:38:41.432Z,93496.50
2022-09-27T09:40:47.937Z,93509.50
2022-09-27T09:43:04.734Z,93495.31
2022-09-27T09:45:17.151Z,93507.22
2022-09-27T09:47:29.635Z,93517.28
2022-09-27T09:49:36.597Z,93516.47
2022-09-27T09:51:47.941Z,93512.16
2022-09-27T09:53:51.914Z,93501.06
2022-09-27T09:56:01.618Z,93498.03
2022-09-27T09:58:09.132Z,93509.22
2022-09-27T10:00:14.859Z,93495.81
2022-09-27T10:02:27.176Z,93521.59
2022-09-27T10:04:29.063Z,93490.13
2022-09-27T10:06:31.189Z,93493.81
2022-09-27T10:08:33.209Z,93488.03
2022-09-27T10:10:35.076Z,93504.28
2022-09-27T10:12:37.733Z,93495.09
2022-09-27T10:14:40.081Z,93489.72
2022-09-27T10:16:43.635Z,93493.03
2022-09-27T10:18:49.833Z,93477.63
2022-09-27T10:20:56.843Z,93470.28
2022-09-27T10:23:10.092Z,93473.13
2022-09-27T10:25:11.738Z,93483.25
2022-09-27T10:27:13.380Z,93474.25
2022-09-27T10:29:22.162Z,93481.41
2022-09-27T10:31:24.128Z,93472.47
2022-09-27T10:33:25.802Z,93486.06
2022-09-27T10:35:31.017Z,93480.84
2022-09-27T10:37:32.679Z,93471.41
2022-09-27T10:39:37.046Z,93469.41
2022-09-27T10:41:42.378Z,93477.25
2022-09-27T10:43:44.290Z,93480.41
2022-09-27T10:45:45.867Z,93475.09
2022-09-27T10:47:47.649Z,93465.59
2022-09-27T10:49:52.933Z,93457.16
2022-09-27T10:51:59.724Z,93456.50
2022-09-27T10:54:01.682Z,93445.81
2022-09-27T10:56:06.842Z,93431.28
2022-09-27T10:58:19.074Z,93423.69
2022-09-27T11:00:28.672Z,93424.00
2022-09-27T11:02:33.451Z,93420.00
2022-09-27T11:04:38.014Z,93420.84
2022-09-27T11:06:40.901Z,93428.31
2022-09-27T11:08:42.718Z,93422.72
2022-09-27T11:10:44.846Z,93418.56
2022-09-27T11:12:46.505Z,93418.78
2022-09-27T11:15:01.283Z,93414.75
2022-09-27T11:17:40.360Z,93423.78
2022-09-27T11:19:54.018Z,93428.16
2022-09-27T11:22:20.634Z,93414.44
2022-09-27T11:24:37.215Z,93408.00
2022-09-27T11:26:58.829Z,93408.16
2022-09-27T11:29:44.646Z,93403.22
2022-09-27T11:31:52.612Z,93399.34
2022-09-27T11:34:32.655Z,93398.22
2022-09-27T11:36:54.675Z,93368.25
2022-09-27T11:39:12.359Z,93366.31
2022-09-27T11:41:32.513Z,93370.41
2022-09-27T11:44:02.813Z,93362.75
2022-09-27T11:46:26.577Z,93370.28
2022-09-27T11:48:40.836Z,93357.50
2022-09-27T11:51:11.595Z,93363.38
2022-09-27T11:53:41.047Z,93359.91
2022-09-27T11:56:03.595Z,93361.00
2022-09-27T11:58:21.951Z,93353.22
2022-09-27T12:00:25.368Z,93345.78
2022-09-27T12:02:44.945Z,93352.69
2022-09-27T12:04:49.604Z,93351.88
2022-09-27T12:07:08.673Z,93337.75
2022-09-27T12:09:13.522Z,93330.81
2022-09-27T12:11:38.002Z,93331.09
2022-09-27T12:14:02.142Z,93335.63
2022-09-27T12:16:04.606Z,93326.03
2022-09-27T12:18:25.108Z,93339.09
2022-09-27T12:20:33.918Z,93319.06
2022-09-27T12:23:00.014Z,93322.75
2022-09-27T12:25:04.380Z,93298.78
2022-09-27T12:27:43.718Z,93280.88
2022-09-27T12:29:47.387Z,93292.06
2022-09-27T12:32:07.697Z,93280.56
2022-09-27T12:34:28.137Z,93280.34
2022-09-27T12:36:38.766Z,93266.50
2022-09-27T12:39:18.769Z,93265.44
2022-09-27T12:41:23.264Z,93262.00
2022-09-27T12:43:28.781Z,93249.97
2022-09-27T12:45:52.259Z,93272.88
2022-09-27T12:48:15.868Z,93257.09
2022-09-27T12:50:46.618Z,93245.50
2022-09-27T12:52:52.922Z,93252.81
2022-09-27T12:55:28.344Z,93256.00
2022-09-27T12:57:36.209Z,93244.72
2022-09-27T13:00:04.444Z,93233.13
2022-09-27T13:02:26.048Z,93237.38
2022-09-27T13:04:35.149Z,93259.56
2022-09-27T13:06:51.058Z,93256.16
2022-09-27T13:09:16.286Z,93283.75
2022-09-27T13:11:29.411Z,93265.06
2022-09-27T13:13:36.246Z,93246.38
2022-09-27T13:15:39.917Z,93240.69
2022-09-27T13:17:42.262Z,93255.91
2022-09-27T13:19:45.741Z,93265.75
2022-09-27T13:21:50.093Z,93258.22
2022-09-27T13:23:51.944Z,93243.03
2022-09-27T13:26:03.990Z,93242.78
2022-09-27T13:28:35.621Z,93233.97
2022-09-27T13:30:37.133Z,93244.16
2022-09-27T13:32:40.978Z,93232.97
2022-09-27T13:34:51.879Z,93231.31
2022-09-27T13:36:53.681Z,93216.84
2022-09-27T13:39:14.361Z,93220.56
2022-09-27T13:41:19.946Z,93238.75
2022-09-27T13:43:23.958Z,93245.41
2022-09-27T13:45:29.439Z,93262.44
2022-09-27T13:47:39.461Z,93259.72
2022-09-27T13:49:43.482Z,93272.25
2022-09-27T13:51:53.288Z,93266.22
2022-09-27T13:53:59.201Z,93260.38
2022-09-27T13:56:01.465Z,93271.38
2022-09-27T13:58:12.674Z,93252.75
2022-09-27T14:00:22.466Z,93262.00
2022-09-27T14:02:29.112Z,93263.69
2022-09-27T14:04:41.734Z,93267.47
2022-09-27T14:06:50.923Z,93258.41
2022-09-27T14:08:58.800Z,93257.91
2022-09-27T14:11:02.933Z,93242.13
2022-09-27T14:13:05.612Z,93244.00
2022-09-27T14:15:19.785Z,93243.78
2022-09-27T14:17:21.863Z,93250.75
2022-09-27T14:19:26.029Z,93251.28
2022-09-27T14:21:39.446Z,93244.06
2022-09-27T14:23:41.061Z,93248.38
2022-09-27T14:25:50.592Z,93250.50
2022-09-27T14:27:52.448Z,93248.63
2022-09-27T14:29:57.616Z,93243.00
2022-09-27T14:32:09.422Z,93230.22
2022-09-27T14:34:12.750Z,93226.47
2022-09-27T14:36:45.718Z,93238.50
2022-09-27T14:38:48.319Z,93242.25
2022-09-27T14:41:00.883Z,93238.22
2022-09-27T14:43:04.067Z,93231.03
2022-09-27T14:45:35.032Z,93220.06
2022-09-27T14:47:36.762Z,93227.53
2022-09-27T14:49:47.553Z,93227.25
2022-09-27T14:51:54.382Z,93248.22
2022-09-27T14:53:59.206Z,93254.50
2022-09-27T14:56:02.133Z,93248.59
2022-09-27T14:58:04.792Z,93258.63
2022-09-27T15:00:25.559Z,93262.91
2022-09-27T15:02:28.211Z,93260.91
2022-09-27T15:04:34.301Z,93278.19
2022-09-27T15:06:37.086Z,93303.09
2022-09-27T15:08:39.161Z,93354.44
2022-09-27T15:10:41.140Z,93359.47
2022-09-27T15:12:45.253Z,93425.50
2022-09-27T15:14:53.307Z,93431.97
2022-09-27T15:16:57.016Z,93368.13
2022-09-27T15:19:03.957Z,93394.06
2022-09-27T15:21:06.300Z,93395.59
2022-09-27T15:23:29.410Z,93397.44
2022-09-27T15:25:38.819Z,93412.75
2022-09-27T15:27:40.496Z,93435.75
2022-09-27T15:29:42.093Z,93427.81
2022-09-27T15:31:43.914Z,93406.06
2022-09-27T15:33:54.892Z,93380.78
2022-09-27T15:36:00.277Z,93385.03
2022-09-27T15:38:35.433Z,93386.66
2022-09-27T15:40:43.775Z,93408.84
2022-09-27T15:42:57.280Z,93439.97
2022-09-27T15:44:59.075Z,93451.44
2022-09-27T15:47:00.721Z,93442.72
2022-09-27T15:49:22.109Z,93384.06
2022-09-27T15:51:41.966Z,93359.38
2022-09-27T15:53:44.259Z,93391.00
2022-09-27T15:55:45.931Z,93408.25
2022-09-27T15:57:54.623Z,93408.13
2022-09-27T15:59:56.286Z,93413.25
2022-09-27T16:02:01.977Z,93408.94
2022-09-27T16:04:09.193Z,93430.16
2022-09-27T16:06:10.676Z,93432.63
2022-09-27T16:08:12.242Z,93441.84
2022-09-27T16:10:18.817Z,93429.88
2022-09-27T16:12:20.420Z,93449.38
2022-09-27T16:14:22.069Z,93449.84
2022-09-27T16:16:23.857Z,93451.25
2022-09-27T16:18:30.158Z,93456.47
2022-09-27T16:20:32.374Z,93462.59
2022-09-27T16:22:34.207Z,93455.00
2022-09-27T16:24:35.770Z,93427.81
2022-09-27T16:26:38.402Z,93421.16
2022-09-27T16:28:40.350Z,93434.53
2022-09-27T16:30:41.940Z,93439.72
2022-09-27T16:32:45.380Z,93448.69
2022-09-27T16:34:46.960Z,93441.63
2022-09-27T16:36:50.290Z,93442.19
2022-09-27T16:38:52.867Z,93426.78
2022-09-27T16:40:54.591Z,93437.47
2022-09-27T16:42:56.542Z,93426.66
2022-09-27T16:44:58.150Z,93440.69
2022-09-27T16:46:59.775Z,93447.81
2022-09-27T16:49:01.876Z,93450.94
2022-09-27T16:51:37.452Z,93450.47
2022-09-27T16:53:39.128Z,93457.31
2022-09-27T16:55:40.752Z,93457.84
2022-09-27T16:57:42.578Z,93468.06
2022-09-27T16:59:44.218Z,93462.75
2022-09-27T17:01:46.302Z,93464.13
2022-09-27T17:03:56.755Z,93468.63
2022-09-27T17:06:04.121Z,93467.53
2022-09-27T17:08:05.838Z,93473.28
2022-09-27T17:10:09.266Z,93474.41
2022-09-27T17:12:12.009Z,93475.56
2022-09-27T17:14:17.331Z,93480.94
2022-09-27T17:16:19.227Z,93486.13
2022-09-27T17:18:22.220Z,93496.50
2022-09-27T17:20:23.880Z,93488.06
2022-09-27T17:22:25.558Z,93489.34
2022-09-27T17:24:27.194Z,93488.28
2022-09-27T17:26:31.882Z,93486.16
2022-09-27T17:28:34.537Z,93495.56
2022-09-27T17:30:36.196Z,93494.31
2022-09-27T17:32:39.436Z,93498.44
2022-09-27T17:34:43.650Z,93505.34
2022-09-27T17:36:49.381Z,93513.50
2022-09-27T17:38:52.107Z,93520.63
2022-09-27T17:41:04.033Z,93515.91
2022-09-27T17:43:06.852Z,93517.41
2022-09-27T17:45:09.122Z,93511.78
2022-09-27T17:47:29.247Z,93503.84
2022-09-27T17:49:49.576Z,93503.38
2022-09-27T17:51:52.831Z,93512.69
2022-09-27T17:53:54.425Z,93509.72
2022-09-27T17:56:01.515Z,93509.13
2022-09-27T17:58:04.198Z,93520.50
2022-09-27T18:00:07.219Z,93521.59
2022-09-27T18:02:09.755Z,93520.50
2022-09-27T18:04:14.716Z,93519.94
2022-09-27T18:06:16.456Z,93520.59
2022-09-27T18:08:18.079Z,93528.91
2022-09-27T18:10:20.005Z,93527.56
2022-09-27T18:12:21.804Z,93524.53
2022-09-27T18:14:24.886Z,93534.91
2022-09-27T18:16:32.539Z,93529.41
2022-09-27T18:18:36.529Z,93536.19
2022-09-27T18:20:38.159Z,93544.06
2022-09-27T18:22:40.913Z,93542.56
2022-09-27T18:24:42.499Z,93549.50
2022-09-27T18:26:46.530Z,93538.09
2022-09-27T18:28:48.958Z,93532.34
2022-09-27T18:30:50.599Z,93536.38
2022-09-27T18:32:52.869Z,93533.72
2022-09-27T18:34:54.650Z,93538.34
2022-09-27T18:36:56.429Z,93538.13
2022-09-27T18:39:01.720Z,93549.81
2022-09-27T18:41:14.710Z,93555.34
2022-09-27T18:43:16.520Z,93557.31
2022-09-27T18:45:18.074Z,93562.94
2022-09-27T18:47:19.760Z,93562.66
2022-09-27T18:49:25.735Z,93565.53
2022-09-27T18:51:30.294Z,93562.53
2022-09-27T18:53:34.985Z,93563.63
2022-09-27T18:55:38.551Z,93560.38
2022-09-27T18:57:40.258Z,93560.53
2022-09-27T18:59:41.946Z,93563.38
2022-09-27T19:01:45.913Z,93561.59
2022-09-27T19:03:48.138Z,93561.84
2022-09-27T19:05:57.077Z,93566.50
2022-09-27T19:07:58.694Z,93577.63
2022-09-27T19:10:01.834Z,93587.66
2022-09-27T19:12:03.678Z,93584.09
2022-09-27T19:14:05.458Z,93580.13
2022-09-27T19:16:07.457Z,93587.31
2022-09-27T19:18:09.219Z,93582.97
2022-09-27T19:20:11.636Z,93593.13
2022-09-27T19:22:13.281Z,93597.44
2022-09-27T19:24:15.614Z,93597.91
2022-09-27T19:26:22.938Z,93603.19
2022-09-27T19:28:24.749Z,93600.88
2022-09-27T19:30:26.558Z,93603.09
2022-09-27T19:32:28.136Z,93604.50
2022-09-27T19:34:29.820Z,93610.38
2022-09-27T19:36:31.816Z,93607.72
2022-09-27T19:38:35.488Z,93611.75
2022-09-27T19:40:37.062Z,93615.38
2022-09-27T19:42:38.929Z,93611.47
2022-09-27T19:44:40.525Z,93615.13
2022-09-27T19:46:42.838Z,93614.31
2022-09-27T19:48:45.842Z,93616.53
2022-09-27T19:50:58.082Z,93612.25
2022-09-27T19:52:59.681Z,93618.34
2022-09-27T19:55:01.629Z,93624.97
2022-09-27T19:57:03.313Z,93626.22
2022-09-27T19:59:07.193Z,93635.25
2022-09-27T20:01:20.616Z,93633.69
2022-09-27T20:03:22.286Z,93630.63
2022-09-27T20:05:23.889Z,93624.09
2022-09-27T20:07:25.584Z,93632.22
2022-09-27T20:09:27.152Z,93630.72
2022-09-27T20:11:29.896Z,93631.50
2022-09-27T20:13:32.528Z,93631.22
2022-09-27T20:15:34.087Z,93632.31
2022-09-27T20:17:35.775Z,93640.78
2022-09-27T20:19:38.642Z,93648.25
2022-09-27T20:21:40.326Z,93651.03
2022-09-27T20:23:41.998Z,93652.66
2022-09-27T20:25:44.021Z,93650.97
2022-09-27T20:27:45.607Z,93655.81
2022-09-27T20:29:48.148Z,93652.38
2022-09-27T20:32:09.435Z,93650.91
2022-09-27T20:34:13.607Z,93652.50
2022-09-27T20:36:15.102Z,93658.38
2022-09-27T20:38:16.950Z,93656.53
2022-09-27T20:40:18.560Z,93653.09
2022-09-27T20:42:20.614Z,93650.25
2022-09-27T20:44:22.303Z,93652.63
2022-09-27T20:46:24.883Z,93652.44
2022-09-27T20:48:26.782Z,93650.81
2022-09-27T20:50:28.542Z,93653.69
2022-09-27T20:52:30.269Z,93642.31
2022-09-27T20:54:33.068Z,93653.09
2022-09-27T20:56:36.861Z,93650.00
2022-09-27T20:58:38.309Z,93654.13
2022-09-27T21:00:40.483Z,93665.84
2022-09-27T21:02:42.117Z,93655.72
2022-09-27T21:04:43.728Z,93657.19
2022-09-27T21:06:45.749Z,93664.47
2022-09-27T21:08:47.305Z,93676.50
2022-09-27T21:10:52.616Z,93671.28
2022-09-27T21:12:54.638Z,93665.03
2022-09-27T21:14:56.245Z,93666.84
2022-09-27T21:17:01.677Z,93669.19
2022-09-27T21:19:04.072Z,93663.34
2022-09-27T21:21:07.884Z,93663.72
2022-09-27T21:23:09.476Z,93656.41
2022-09-27T21:25:11.383Z,93660.66
2022-09-27T21:27:13.112Z,93659.47
2022-09-27T21:29:14.844Z,93660.81
2022-09-27T21:31:22.734Z,93659.94
2022-09-27T21:33:24.683Z,93667.59
2022-09-27T21:35:26.299Z,93660.28
2022-09-27T21:37:28.125Z,93659.38
2022-09-27T21:39:29.750Z,93667.03
2022-09-27T21:41:31.354Z,93665.34
2022-09-27T21:43:39.270Z,93667.34
2022-09-27T21:45:40.838Z,93664.63
2022-09-27T21:47:42.418Z,93659.47
2022-09-27T21:49:44.098Z,93664.34
2022-09-27T21:51:45.829Z,93660.31
2022-09-27T21:53:57.503Z,93661.38
2022-09-27T21:55:59.487Z,93659.09
2022-09-27T21:58:01.178Z,93658.28
2022-09-27T22:00:02.813Z,93651.91
2022-09-27T22:02:04.596Z,93655.03
2022-09-27T22:04:06.850Z,93660.78
2022-09-27T22:06:10.703Z,93659.34
2022-09-27T22:08:12.473Z,93667.44
2022-09-27T22:10:14.243Z,93665.25
2022-09-27T22:12:15.798Z,93675.16
2022-09-27T22:14:18.896Z,93667.41
2022-09-27T22:16:21.380Z,93665.31
2022-09-27T22:18:23.085Z,93680.91
2022-09-27T22:20:24.761Z,93669.50
2022-09-27T22:22:26.397Z,93669.06
2022-09-27T22:24:27.987Z,93674.53
2022-09-27T22:26:32.197Z,93676.13
2022-09-27T22:28:34.068Z,93680.16
2022-09-27T22:30:35.649Z,93677.31
2022-09-27T22:32:37.422Z,93678.44
2022-09-27T22:34:39.116Z,93670.91
2022-09-27T22:36:42.267Z,93683.28
2022-09-27T22:38:44.128Z,93683.03
2022-09-27T22:40:54.081Z,93682.25
2022-09-27T22:42:55.686Z,93686.91
2022-09-27T22:44:57.302Z,93680.44
2022-09-27T22:46:58.970Z,93679.25
2022-09-27T22:49:00.854Z,93689.34
2022-09-27T22:51:04.168Z,93678.69
2022-09-27T22:53:06.762Z,93679.19
2022-09-27T22:55:08.919Z,93686.66
2022-09-27T22:57:10.586Z,93687.84
2022-09-27T22:59:12.161Z,93690.84
2022-09-27T23:01:20.571Z,93685.56
2022-09-27T23:03:22.886Z,93686.97
2022-09-27T23:05:24.758Z,93678.22
2022-09-27T23:07:26.546Z,93679.03
2022-09-27T23:09:28.168Z,93682.25
2022-09-27T23:11:30.137Z,93684.28
2022-09-27T23:13:36.390Z,93684.63
2022-09-27T23:15:38.042Z,93683.59
2022-09-27T23:17:40.398Z,93667.13
2022-09-27T23:19:42.688Z,93673.78
2022-09-27T23:21:44.239Z,93669.59
2022-09-27T23:23:46.536Z,93674.28
2022-09-27T23:25:48.228Z,93669.81
2022-09-27T23:27:51.021Z,93657.63
2022-09-27T23:29:52.642Z,93657.47
2022-09-27T23:31:54.317Z,93665.81
2022-09-27T23:33:57.029Z,93676.38
2022-09-27T23:36:01.361Z,93669.03
2022-09-27T23:38:03.031Z,93668.00
2022-09-27T23:40:05.032Z,93664.94
2022-09-27T23:42:06.833Z,93653.97
2022-09-27T23:44:08.460Z,93666.78
2022-09-27T23:46:10.621Z,93660.09
2022-09-27T23:48:12.955Z,93663.34
2022-09-27T23:50:15.219Z,93659.09
2022-09-27T23:52:16.819Z,93663.94
2022-09-27T23:54:18.511Z,93660.25
2022-09-27T23:56:20.212Z,93663.50
2022-09-27T23:58:22.414Z,93653.97
